| time (UTC) | temp F | wind direction | speed MPH | gust MPH | rain 1hr in | rain 24hr in | rain mn in | humidity % | barometer mb |
| 20260510094537 | 75 | 58 | 2.0 | 5.0 | 0.00 | 0.00 | 0.00 | 96 | 1011.6 |
| 20260510093043 | 75 | 64 | 0.0 | 2.0 | 0.00 | 0.00 | 0.00 | 96 | 1011.7 |
| 20260510091543 | 75 | 0 | 0.0 | 1.0 | 0.00 | 0.00 | 0.00 | 96 | 1011.6 |
| 20260510090054 | 75 | 111 | 0.0 | 4.0 | 0.00 | 0.00 | 0.00 | 96 | 1011.5 |
| 20260510084544 | 75 | 131 | 0.0 | 3.0 | 0.00 | 0.00 | 0.00 | 95 | 1011.5 |
| 20260510083045 | 75 | 0 | 0.0 | 3.0 | 0.00 | 0.00 | 0.00 | 95 | 1011.4 |
| 20260510081551 | 75 | 0 | 0.0 | 4.0 | 0.00 | 0.00 | 0.00 | 95 | 1011.4 |
| 20260510080038 | 75 | 0 | 0.0 | 4.0 | 0.00 | 0.00 | 0.00 | 95 | 1011.4 |
| 20260510074538 | 75 | 0 | 2.0 | 5.0 | 0.00 | 0.00 | 0.00 | 95 | 1011.2 |
| 20260510073052 | 75 | 88 | 1.0 | 6.0 | 0.00 | 0.00 | 0.00 | 95 | 1011.2 |
| 20260510071543 | 75 | 75 | 1.0 | 6.0 | 0.00 | 0.00 | 0.00 | 95 | 1011.4 |
| 20260510070041 | 75 | 38 | 1.0 | 4.0 | 0.00 | 0.00 | 0.00 | 95 | 1011.7 |
| 20260510064551 | 75 | 108 | 0.0 | 3.0 | 0.00 | 0.00 | 0.00 | 95 | 1011.8 |
| 20260510063042 | 75 | 95 | 0.0 | 5.0 | 0.00 | 0.00 | 0.00 | 94 | 1011.9 |
| 20260510061544 | 75 | 75 | 2.0 | 7.0 | 0.00 | 0.00 | 0.00 | 94 | 1012.0 |
| 20260510060048 | 75 | 93 | 2.0 | 6.0 | 0.00 | 0.00 | 0.00 | 94 | 1012.2 |
| 20260510054541 | 75 | 119 | 2.0 | 6.0 | 0.00 | 0.00 | 0.00 | 94 | 1012.1 |
| 20260510053050 | 74 | 110 | 2.0 | 5.0 | 0.00 | 0.00 | 0.00 | 94 | 1012.0 |
| 20260510051543 | 74 | 0 | 0.0 | 4.0 | 0.00 | 0.00 | 0.00 | 93 | 1012.3 |
| 20260510050037 | 74 | 0 | 0.0 | 1.0 | 0.00 | 0.00 | 0.00 | 93 | 1012.3 |
| 20260510044555 | 74 | 338 | 1.0 | 3.0 | 0.00 | 0.00 | 0.00 | 93 | 1012.4 |
| 20260510043052 | 74 | 0 | 0.0 | 2.0 | 0.00 | 0.00 | 0.00 | 92 | 1012.3 |
| 20260510041543 | 74 | 65 | 1.0 | 6.0 | 0.00 | 0.00 | 0.00 | 92 | 1011.9 |
| 20260510040044 | 74 | 94 | 1.0 | 5.0 | 0.00 | 0.00 | 0.00 | 92 | 1012.1 |
| 20260510034540 | 74 | 58 | 0.0 | 5.0 | 0.00 | 0.00 | 0.00 | 92 | 1012.0 |
| 20260510033054 | 74 | 0 | 0.0 | 4.0 | 0.00 | 0.00 | 0.00 | 91 | 1011.8 |
| 20260510031544 | 74 | 337 | 0.0 | 3.0 | 0.00 | 0.00 | 0.00 | 89 | 1011.9 |
| 20260510030051 | 75 | 0 | 0.0 | 2.0 | 0.00 | 0.00 | 0.00 | 89 | 1011.4 |
| 20260510024542 | 75 | 0 | 0.0 | 3.0 | 0.00 | 0.00 | 0.00 | 88 | 1011.0 |
| 20260510023038 | 75 | 101 | 0.0 | 3.0 | 0.00 | 0.00 | 0.00 | 88 | 1010.6 |
| 20260510021537 | 75 | 0 | 0.0 | 2.0 | 0.00 | 0.00 | 0.00 | 88 | 1010.2 |
| 20260510020044 | 76 | 131 | 0.0 | 5.0 | 0.00 | 0.00 | 0.00 | 89 | 1010.0 |
| 20260510014545 | 76 | 0 | 0.0 | 4.0 | 0.00 | 0.00 | 0.00 | 90 | 1009.9 |
| 20260510013043 | 76 | 0 | 0.0 | 2.0 | 0.00 | 0.00 | 0.00 | 89 | 1009.8 |
| 20260510011540 | 77 | 114 | 0.0 | 2.0 | 0.00 | 0.00 | 0.00 | 88 | 1009.7 |
| 20260510010037 | 77 | 0 | 0.0 | 7.0 | 0.00 | 0.00 | 0.00 | 87 | 1009.7 |
| 20260510004541 | 78 | 106 | 1.0 | 8.0 | 0.00 | 0.00 | 0.00 | 86 | 1009.5 |
| 20260510003046 | 79 | 0 | 2.0 | 8.0 | 0.00 | 0.00 | 0.00 | 85 | 1009.3 |
| 20260510001542 | 80 | 147 | 1.0 | 10.0 | 0.00 | 0.00 | 0.00 | 83 | 1009.4 |
| 20260510000049 | 81 | 99 | 1.0 | 9.0 | 0.00 | 0.00 | 0.00 | 81 | 1009.3 |
| 20260509234552 | 81 | 208 | 2.0 | 9.0 | 0.00 | 0.00 | 0.00 | 80 | 1009.2 |
| 20260509233043 | 82 | 229 | 2.0 | 7.0 | 0.00 | 0.00 | 0.00 | 79 | 1009.3 |
| 20260509231544 | 82 | 115 | 3.0 | 10.0 | 0.00 | 0.00 | 0.00 | 81 | 1009.2 |
| 20260509230045 | 83 | 140 | 5.0 | 9.0 | 0.00 | 0.00 | 0.00 | 77 | 1009.1 |
| 20260509224536 | 85 | 171 | 4.0 | 10.0 | 0.00 | 0.00 | 0.00 | 72 | 1008.8 |
| 20260509223047 | 87 | 119 | 4.0 | 11.0 | 0.00 | 0.00 | 0.00 | 64 | 1008.7 |
| 20260509221542 | 92 | 221 | 2.0 | 6.0 | 0.00 | 0.00 | 0.00 | 53 | 1008.6 |
| 20260509220040 | 92 | 0 | 1.0 | 5.0 | 0.00 | 0.00 | 0.00 | 52 | 1008.4 |
| 20260509214539 | 93 | 138 | 1.0 | 6.0 | 0.00 | 0.00 | 0.00 | 53 | 1008.5 |
| 20260509213038 | 92 | 188 | 2.0 | 9.0 | 0.00 | 0.00 | 0.00 | 52 | 1008.5 |
| 20260509211621 | 93 | 214 | 2.0 | 6.0 | 0.00 | 0.00 | 0.00 | 49 | 1008.6 |
| 20260509210043 | 93 | 184 | 1.0 | 7.0 | 0.00 | 0.00 | 0.00 | 51 | 1008.6 |
| 20260509204542 | 92 | 228 | 1.0 | 7.0 | 0.00 | 0.00 | 0.00 | 48 | 1008.6 |
| 20260509203042 | 92 | 0 | 1.0 | 7.0 | 0.00 | 0.00 | 0.00 | 51 | 1008.6 |
| 20260509201547 | 92 | 156 | 1.0 | 6.0 | 0.00 | 0.00 | 0.00 | 50 | 1008.7 |
| 20260509200050 | 92 | 235 | 0.0 | 7.0 | 0.00 | 0.00 | 0.00 | 51 | 1009.0 |
| 20260509194543 | 91 | 300 | 1.0 | 10.0 | 0.00 | 0.00 | 0.00 | 52 | 1009.1 |
| 20260509193102 | 92 | 214 | 2.0 | 8.0 | 0.00 | 0.00 | 0.00 | 53 | 1009.3 |
| 20260509191542 | 91 | 198 | 3.0 | 9.0 | 0.00 | 0.00 | 0.00 | 51 | 1009.6 |
| 20260509190038 | 90 | 200 | 1.0 | 7.0 | 0.00 | 0.00 | 0.00 | 57 | 1009.6 |
| 20260509184555 | 90 | 290 | 0.0 | 3.0 | 0.00 | 0.00 | 0.00 | 56 | 1009.6 |
| 20260509183042 | 89 | 150 | 0.0 | 3.0 | 0.00 | 0.00 | 0.00 | 58 | 1009.6 |
| 20260509181545 | 88 | 297 | 0.0 | 6.0 | 0.00 | 0.00 | 0.00 | 58 | 1009.5 |
| 20260509180041 | 86 | 0 | 1.0 | 5.0 | 0.00 | 0.00 | 0.00 | 61 | 1009.8 |
| 20260509174538 | 85 | 0 | 0.0 | 2.0 | 0.00 | 0.00 | 0.00 | 75 | 1009.8 |
| 20260509173043 | 83 | 0 | 0.0 | 2.0 | 0.00 | 0.00 | 0.00 | 76 | 1010.0 |
| 20260509171544 | 81 | 0 | 0.0 | 0.0 | 0.00 | 0.00 | 0.00 | 81 | 1010.2 |
| 20260509170044 | 80 | 307 | 0.0 | 3.0 | 0.00 | 0.00 | 0.00 | 84 | 1010.4 |
| 20260509164541 | 79 | 306 | 0.0 | 3.0 | 0.00 | 0.00 | 0.00 | 86 | 1010.7 |
| 20260509163039 | 78 | 319 | 1.0 | 2.0 | 0.00 | 0.00 | 0.00 | 87 | 1010.8 |
| 20260509161537 | 78 | 130 | 0.0 | 3.0 | 0.00 | 0.00 | 0.00 | 90 | 1010.7 |
| 20260509160039 | 77 | 0 | 0.0 | 4.0 | 0.00 | 0.00 | 0.00 | 91 | 1010.9 |
| 20260509154548 | 76 | 58 | 1.0 | 3.0 | 0.00 | 0.00 | 0.00 | 91 | 1010.4 |
| 20260509153040 | 76 | 94 | 0.0 | 2.0 | 0.00 | 0.00 | 0.00 | 93 | 1011.2 |
| 20260509151541 | 75 | 0 | 0.0 | 2.0 | 0.00 | 0.00 | 0.00 | 95 | 1011.6 |
| 20260509150041 | 75 | 201 | 1.0 | 11.0 | 0.00 | 0.00 | 0.00 | 97 | 1011.5 |
| 20260509144612 | 75 | 216 | 0.0 | 3.0 | 0.00 | 0.00 | 0.00 | 98 | 1011.1 |
| 20260509143048 | 75 | 232 | 3.0 | 13.0 | 0.00 | 0.00 | 0.00 | 98 | 1008.8 |
| 20260509141545 | 75 | 60 | 2.0 | 8.0 | 0.00 | 0.00 | 0.00 | 98 | 1009.2 |
| 20260509140042 | 75 | 115 | 2.0 | 8.0 | 0.00 | 0.00 | 0.00 | 98 | 1010.2 |
| 20260509134543 | 75 | 0 | 0.0 | 3.0 | 0.00 | 0.00 | 0.00 | 98 | 1011.5 |
| 20260509133038 | 74 | 0 | 0.0 | 2.0 | 0.00 | 0.00 | 0.00 | 98 | 1011.1 |
| 20260509131541 | 74 | 0 | 0.0 | 0.0 | 0.00 | 0.00 | 0.00 | 98 | 1011.0 |
| 20260509130035 | 74 | 0 | 0.0 | 1.0 | 0.00 | 0.00 | 0.00 | 98 | 1011.0 |
| 20260509124600 | 74 | 237 | 0.0 | 0.0 | 0.00 | 0.01 | 0.00 | 98 | 1011.0 |
| 20260509123043 | 74 | 0 | 0.0 | 1.0 | 0.00 | 0.01 | 0.00 | 98 | 1011.4 |
| 20260509121543 | 73 | 0 | 0.0 | 0.0 | 0.00 | 0.01 | 0.00 | 98 | 1011.4 |
| 20260509120039 | 73 | 0 | 0.0 | 1.0 | 0.00 | 0.01 | 0.00 | 98 | 1011.8 |
| 20260509114544 | 73 | 0 | 0.0 | 1.0 | 0.00 | 0.01 | 0.00 | 98 | 1011.3 |
| 20260509113037 | 73 | 0 | 0.0 | 1.0 | 0.00 | 0.01 | 0.00 | 98 | 1010.7 |
| 20260509111541 | 73 | 0 | 0.0 | 0.0 | 0.00 | 0.01 | 0.00 | 98 | 1009.9 |
| 20260509110040 | 73 | 0 | 0.0 | 1.0 | 0.00 | 0.01 | 0.00 | 98 | 1009.7 |
| 20260509104539 | 73 | 0 | 0.0 | 0.0 | 0.00 | 0.01 | 0.00 | 98 | 1009.9 |
| 20260509103039 | 73 | 0 | 0.0 | 1.0 | 0.00 | 0.01 | 0.00 | 97 | 1009.5 |
| 20260509101538 | 74 | 0 | 0.0 | 2.0 | 0.00 | 0.01 | 0.00 | 97 | 1009.6 |
| 20260509100049 | 74 | 0 | 0.0 | 2.0 | 0.00 | 0.01 | 0.00 | 98 | 1009.6 |